createdAt,value
2018-10-02T00:00:50.691Z,1.47
2018-10-02T00:03:18.810Z,1.80
2018-10-02T00:05:46.884Z,1.63
2018-10-02T00:08:14.916Z,1.57
2018-10-02T00:10:47.493Z,1.43
2018-10-02T00:13:21.108Z,1.73
2018-10-02T00:15:49.153Z,1.73
2018-10-02T00:18:17.233Z,1.87
2018-10-02T00:20:45.286Z,1.60
2018-10-02T00:23:13.331Z,1.53
2018-10-02T00:25:41.482Z,1.70
2018-10-02T00:28:09.637Z,1.60
2018-10-02T00:30:37.709Z,1.60
2018-10-02T00:33:05.763Z,1.80
2018-10-02T00:35:33.811Z,2.00
2018-10-02T00:38:01.862Z,1.67
2018-10-02T00:40:29.951Z,1.60
2018-10-02T00:42:58.046Z,1.93
2018-10-02T00:45:26.117Z,1.70
2018-10-02T00:47:54.155Z,1.40
2018-10-02T00:50:22.275Z,1.73
2018-10-02T00:52:50.342Z,1.80
2018-10-02T00:55:18.476Z,1.53
2018-10-02T00:57:46.623Z,1.60
2018-10-02T01:00:14.726Z,1.70
2018-10-02T01:02:42.797Z,1.80
2018-10-02T01:05:10.942Z,1.90
2018-10-02T01:07:39.039Z,1.80
2018-10-02T01:10:07.190Z,2.10
2018-10-02T01:12:35.330Z,1.43
2018-10-02T01:15:03.407Z,1.77
2018-10-02T01:17:31.465Z,1.77
2018-10-02T01:19:59.544Z,1.80
2018-10-02T01:22:27.613Z,1.70
2018-10-02T01:24:55.723Z,1.60
2018-10-02T01:27:23.775Z,1.73
2018-10-02T01:29:51.914Z,1.33
2018-10-02T01:32:19.994Z,1.50
2018-10-02T01:34:48.054Z,2.00
2018-10-02T01:37:16.101Z,1.67
2018-10-02T01:39:44.226Z,1.43
2018-10-02T01:42:12.334Z,2.00
2018-10-02T01:44:40.362Z,1.53
2018-10-02T01:47:08.453Z,1.70
2018-10-02T01:49:36.522Z,1.70
2018-10-02T01:52:04.688Z,1.37
2018-10-02T01:54:32.754Z,1.90
2018-10-02T01:57:00.847Z,1.70
2018-10-02T01:59:28.899Z,1.73
2018-10-02T02:01:57.099Z,1.53
2018-10-02T02:04:25.406Z,1.60
2018-10-02T02:06:53.493Z,1.60
2018-10-02T02:09:21.615Z,1.57
2018-10-02T02:11:49.747Z,1.70
2018-10-02T02:14:17.879Z,1.70
2018-10-02T02:16:45.963Z,1.50
2018-10-02T02:19:14.091Z,1.63
2018-10-02T02:21:42.198Z,1.90
2018-10-02T02:24:10.329Z,1.70
2018-10-02T02:26:38.415Z,1.53
2018-10-02T02:29:06.540Z,1.67
2018-10-02T02:31:34.600Z,1.67
2018-10-02T02:34:02.626Z,1.80
2018-10-02T02:36:30.711Z,1.70
2018-10-02T02:38:58.770Z,1.80
2018-10-02T02:41:26.852Z,1.97
2018-10-02T02:43:54.919Z,1.70
2018-10-02T02:46:23.057Z,1.97
2018-10-02T02:48:56.480Z,2.30
2018-10-02T02:51:29.072Z,1.80
2018-10-02T02:53:57.138Z,2.10
2018-10-02T02:56:25.323Z,1.97
2018-10-02T02:58:53.483Z,2.50
2018-10-02T03:01:21.607Z,2.27
2018-10-02T03:03:49.675Z,2.00
2018-10-02T03:06:17.747Z,2.30
2018-10-02T03:08:45.874Z,2.53
2018-10-02T03:11:14.003Z,2.50
2018-10-02T03:13:42.081Z,2.33
2018-10-02T03:16:10.354Z,2.57
2018-10-02T03:18:38.454Z,2.73
2018-10-02T03:21:06.531Z,2.80
2018-10-02T03:23:34.646Z,2.77
2018-10-02T03:26:02.690Z,2.83
2018-10-02T03:28:30.790Z,2.73
2018-10-02T03:30:58.922Z,3.00
2018-10-02T03:33:26.997Z,2.93
2018-10-02T03:35:55.092Z,3.13
2018-10-02T03:38:23.207Z,2.90
2018-10-02T03:40:51.293Z,2.90
2018-10-02T03:43:19.402Z,2.70
2018-10-02T03:45:47.561Z,3.17
2018-10-02T03:48:15.624Z,2.90
2018-10-02T03:50:43.688Z,3.27
2018-10-02T03:53:11.777Z,2.83
2018-10-02T03:55:39.863Z,3.67
2018-10-02T03:58:07.993Z,3.17
2018-10-02T04:00:36.070Z,3.73
2018-10-02T04:03:04.354Z,3.50
2018-10-02T04:05:32.462Z,4.00
2018-10-02T04:08:00.546Z,4.60
2018-10-02T04:10:28.691Z,4.23
2018-10-02T04:12:56.766Z,4.13
2018-10-02T04:15:24.862Z,3.97
2018-10-02T04:17:53.026Z,4.47
2018-10-02T04:20:21.109Z,4.30
2018-10-02T04:22:49.286Z,4.20
2018-10-02T04:25:17.336Z,4.40
2018-10-02T04:27:45.500Z,4.10
2018-10-02T04:30:13.663Z,3.90
2018-10-02T04:32:41.792Z,3.73
2018-10-02T04:35:09.892Z,4.80
2018-10-02T04:37:38.402Z,4.40
2018-10-02T04:40:06.448Z,4.40
2018-10-02T04:42:34.523Z,4.30
2018-10-02T04:45:02.602Z,3.90
2018-10-02T04:47:30.693Z,3.87
2018-10-02T04:49:58.768Z,3.83
2018-10-02T04:52:26.858Z,3.80
2018-10-02T04:54:54.992Z,4.03
2018-10-02T04:57:23.048Z,4.27
2018-10-02T04:59:51.127Z,4.20
2018-10-02T05:02:19.182Z,4.83
2018-10-02T05:04:47.326Z,4.73
2018-10-02T05:07:15.480Z,4.57
2018-10-02T05:09:43.578Z,5.30
2018-10-02T05:12:11.679Z,5.40
2018-10-02T05:14:39.768Z,6.03
2018-10-02T05:17:07.840Z,6.03
2018-10-02T05:19:35.935Z,6.10
2018-10-02T05:22:03.987Z,6.40
2018-10-02T05:24:32.084Z,5.43
2018-10-02T05:27:00.203Z,5.33
2018-10-02T05:29:28.292Z,6.20
2018-10-02T05:31:56.406Z,5.57
2018-10-02T05:34:24.485Z,5.37
2018-10-02T05:36:52.561Z,5.53
2018-10-02T05:39:20.641Z,5.37
2018-10-02T05:41:48.726Z,4.90
2018-10-02T05:44:16.814Z,5.20
2018-10-02T05:46:44.907Z,4.40
2018-10-02T05:49:12.957Z,4.50
2018-10-02T05:51:41.091Z,4.07
2018-10-02T05:54:09.196Z,4.30
2018-10-02T05:56:37.277Z,4.60
2018-10-02T05:59:05.397Z,4.33
2018-10-02T06:01:33.530Z,4.77
2018-10-02T06:04:01.644Z,5.17
2018-10-02T06:06:29.794Z,5.10
2018-10-02T06:08:57.852Z,4.37
2018-10-02T06:11:25.961Z,5.30
2018-10-02T06:13:54.040Z,4.70
2018-10-02T06:16:22.108Z,4.03
2018-10-02T06:18:50.366Z,3.93
2018-10-02T06:21:18.373Z,4.50
2018-10-02T06:23:46.477Z,4.10
2018-10-02T06:26:14.566Z,4.33
2018-10-02T06:28:42.688Z,3.83
2018-10-02T06:31:10.742Z,3.93
2018-10-02T06:33:38.813Z,3.70
2018-10-02T06:36:06.946Z,3.50
2018-10-02T06:38:35.267Z,3.43
2018-10-02T06:41:03.245Z,3.23
2018-10-02T06:43:31.347Z,3.20
2018-10-02T06:45:59.447Z,2.87
2018-10-02T06:48:27.537Z,2.70
2018-10-02T06:50:55.714Z,3.03
2018-10-02T06:53:23.740Z,3.30
2018-10-02T06:55:51.844Z,2.67
2018-10-02T06:58:19.942Z,4.20
2018-10-02T07:00:48.130Z,4.27
2018-10-02T07:03:16.303Z,2.70
2018-10-02T07:05:44.483Z,2.87
2018-10-02T07:08:12.517Z,2.47
2018-10-02T07:10:40.703Z,3.00
2018-10-02T07:13:08.838Z,3.03
2018-10-02T07:15:36.964Z,3.17
2018-10-02T07:18:05.051Z,2.90
2018-10-02T07:20:33.272Z,2.53
2018-10-02T07:23:01.284Z,2.13
2018-10-02T07:25:29.361Z,2.50
2018-10-02T07:27:57.568Z,2.57
2018-10-02T07:30:25.552Z,2.70
2018-10-02T07:32:53.716Z,2.63
2018-10-02T07:35:21.784Z,2.13
2018-10-02T07:37:49.829Z,2.80
2018-10-02T07:40:17.904Z,2.93
2018-10-02T07:42:45.972Z,2.27
2018-10-02T07:45:14.053Z,2.60
2018-10-02T07:47:42.189Z,2.47
2018-10-02T07:50:10.220Z,3.07
2018-10-02T07:52:38.283Z,2.57
2018-10-02T07:55:06.358Z,2.40
2018-10-02T07:57:34.431Z,2.70
2018-10-02T08:00:02.632Z,2.67
2018-10-02T08:02:30.731Z,2.60
2018-10-02T08:04:58.828Z,2.13
2018-10-02T08:07:26.861Z,2.97
2018-10-02T08:09:54.956Z,2.67
2018-10-02T08:12:23.167Z,2.83
2018-10-02T08:14:51.121Z,2.43
2018-10-02T08:17:19.183Z,2.87
2018-10-02T08:19:47.296Z,2.90
2018-10-02T08:22:15.326Z,2.37
2018-10-02T08:24:43.388Z,2.00
2018-10-02T08:27:11.738Z,2.20
2018-10-02T08:29:39.848Z,2.47
2018-10-02T08:32:07.852Z,2.37
2018-10-02T08:34:35.944Z,2.07
2018-10-02T08:37:04.095Z,2.87
2018-10-02T08:39:32.164Z,2.10
2018-10-02T08:42:00.338Z,3.40
2018-10-02T08:44:28.320Z,2.27
2018-10-02T08:46:56.449Z,2.67
2018-10-02T08:49:24.512Z,2.10
2018-10-02T08:51:52.843Z,2.80
2018-10-02T08:54:20.876Z,2.23
2018-10-02T08:56:48.963Z,3.00
2018-10-02T08:59:17.167Z,2.23
2018-10-02T09:01:45.246Z,2.43
2018-10-02T09:04:13.313Z,2.40
2018-10-02T09:06:41.472Z,2.07
2018-10-02T09:09:11.254Z,2.17
2018-10-02T09:11:39.311Z,2.67
2018-10-02T09:14:07.500Z,2.40
2018-10-02T09:16:35.724Z,2.03
2018-10-02T09:19:03.723Z,2.00
2018-10-02T09:21:31.818Z,2.23
2018-10-02T09:23:59.950Z,2.30
2018-10-02T09:26:27.875Z,2.10
2018-10-02T09:28:55.964Z,2.90
2018-10-02T09:31:29.665Z,2.23
2018-10-02T09:34:03.428Z,2.40
2018-10-02T09:36:37.158Z,1.67
2018-10-02T09:39:12.312Z,2.23
2018-10-02T09:41:45.808Z,2.33
2018-10-02T09:44:13.881Z,2.63
2018-10-02T09:46:41.971Z,2.53
2018-10-02T09:49:10.025Z,2.00
2018-10-02T09:51:38.143Z,2.13
2018-10-02T09:54:14.226Z,2.73
2018-10-02T09:56:43.713Z,2.27
2018-10-02T09:59:12.934Z,1.80
2018-10-02T10:01:46.500Z,2.07
2018-10-02T10:04:15.023Z,1.80
2018-10-02T10:06:43.084Z,2.50
2018-10-02T10:09:11.664Z,2.43
2018-10-02T10:11:40.202Z,2.30
2018-10-02T10:14:08.529Z,2.30
2018-10-02T10:16:36.881Z,2.40
2018-10-02T10:19:04.972Z,2.30
2018-10-02T10:21:33.166Z,2.13
2018-10-02T10:24:01.344Z,2.07
2018-10-02T10:26:29.419Z,2.10
2018-10-02T10:28:57.581Z,2.40
2018-10-02T10:31:25.592Z,2.30
2018-10-02T10:33:53.650Z,2.07
2018-10-02T10:36:21.704Z,2.43
2018-10-02T10:38:49.808Z,1.93
2018-10-02T10:41:17.870Z,2.33
2018-10-02T10:43:45.939Z,2.60
2018-10-02T10:46:13.987Z,2.40
2018-10-02T10:48:42.083Z,2.20
2018-10-02T10:51:10.179Z,2.10
2018-10-02T10:53:38.232Z,2.13
2018-10-02T10:56:06.302Z,1.83
2018-10-02T10:58:34.398Z,2.20
2018-10-02T11:01:02.622Z,2.07
2018-10-02T11:03:30.760Z,2.30
2018-10-02T11:05:58.850Z,3.10
2018-10-02T11:08:26.952Z,2.80
2018-10-02T11:10:55.084Z,2.40
2018-10-02T11:13:23.217Z,2.07
2018-10-02T11:15:51.306Z,1.77
2018-10-02T11:18:19.448Z,2.33
2018-10-02T11:20:47.561Z,2.53
2018-10-02T11:23:15.638Z,2.20
2018-10-02T11:25:43.803Z,2.00
2018-10-02T11:28:11.851Z,2.57
2018-10-02T11:30:39.895Z,2.57
2018-10-02T11:33:07.967Z,2.33
2018-10-02T11:35:36.124Z,2.50
2018-10-02T11:38:04.174Z,2.30
2018-10-02T11:40:32.268Z,2.20
2018-10-02T11:43:00.356Z,2.30
2018-10-02T11:45:28.457Z,2.47
2018-10-02T11:47:56.530Z,2.53
2018-10-02T11:50:24.645Z,2.20
2018-10-02T11:52:52.722Z,2.50
2018-10-02T11:55:20.819Z,2.33
2018-10-02T11:57:48.930Z,1.90
2018-10-02T12:00:17.047Z,2.00
2018-10-02T12:02:45.111Z,2.60
2018-10-02T12:05:13.273Z,2.60
2018-10-02T12:07:41.357Z,2.00
2018-10-02T12:10:09.471Z,1.90
2018-10-02T12:12:37.555Z,2.20
2018-10-02T12:15:05.668Z,2.10
2018-10-02T12:17:33.772Z,2.10
2018-10-02T12:20:01.926Z,1.87
2018-10-02T12:22:29.932Z,1.80
2018-10-02T12:24:58.021Z,1.90
2018-10-02T12:27:26.124Z,2.33
2018-10-02T12:29:54.240Z,2.10
2018-10-02T12:32:22.347Z,2.50
2018-10-02T12:34:50.414Z,2.13
2018-10-02T12:37:18.544Z,2.73
2018-10-02T12:39:46.619Z,2.53
2018-10-02T12:42:14.700Z,2.33
2018-10-02T12:44:42.781Z,2.47
2018-10-02T12:47:10.861Z,2.37
2018-10-02T12:49:38.975Z,2.27
2018-10-02T12:52:07.051Z,1.97
2018-10-02T12:54:35.161Z,2.20
2018-10-02T12:57:03.203Z,2.00
2018-10-02T12:59:31.298Z,1.90
2018-10-02T13:01:59.375Z,2.17
2018-10-02T13:04:27.463Z,1.83
2018-10-02T13:06:55.601Z,2.47
2018-10-02T13:09:23.710Z,2.30
2018-10-02T13:11:51.964Z,2.23
2018-10-02T13:14:20.085Z,2.60
2018-10-02T13:16:48.252Z,2.63
2018-10-02T13:19:16.244Z,2.53
2018-10-02T13:21:44.295Z,2.80
2018-10-02T13:24:12.488Z,3.00
2018-10-02T13:26:40.580Z,2.97
2018-10-02T13:29:08.724Z,3.80
2018-10-02T13:31:36.815Z,3.33
2018-10-02T13:34:04.877Z,3.83
2018-10-02T13:36:32.948Z,3.17
2018-10-02T13:39:01.004Z,3.20
2018-10-02T13:41:29.089Z,3.20
2018-10-02T13:43:57.119Z,3.20
2018-10-02T13:46:25.186Z,4.00
2018-10-02T13:48:53.324Z,3.50
2018-10-02T13:51:21.517Z,4.20
2018-10-02T13:53:49.576Z,3.70
2018-10-02T13:56:17.664Z,3.60
2018-10-02T13:58:45.737Z,4.23
2018-10-02T14:01:13.850Z,3.63
2018-10-02T14:03:41.888Z,3.73
2018-10-02T14:06:09.967Z,4.67
2018-10-02T14:08:38.144Z,4.27
2018-10-02T14:11:06.311Z,4.03
2018-10-02T14:13:34.383Z,4.23
2018-10-02T14:16:02.446Z,4.33
2018-10-02T14:18:30.536Z,4.07
2018-10-02T14:20:58.588Z,3.67
2018-10-02T14:23:26.648Z,3.43
2018-10-02T14:25:54.739Z,4.37
2018-10-02T14:28:22.853Z,3.77
2018-10-02T14:30:50.933Z,4.17
2018-10-02T14:33:19.116Z,3.83
2018-10-02T14:35:47.226Z,3.70
2018-10-02T14:38:15.298Z,4.20
2018-10-02T14:40:43.347Z,4.13
2018-10-02T14:43:11.480Z,4.03
2018-10-02T14:45:39.489Z,3.30
2018-10-02T14:48:07.604Z,3.80
2018-10-02T14:50:35.643Z,4.73
2018-10-02T14:53:03.702Z,5.30
2018-10-02T14:55:31.754Z,4.77
2018-10-02T14:57:59.848Z,4.50
2018-10-02T15:00:27.917Z,4.07
2018-10-02T15:02:55.988Z,4.00
2018-10-02T15:05:24.064Z,3.50
2018-10-02T15:07:52.201Z,3.50
2018-10-02T15:10:20.335Z,3.77
2018-10-02T15:12:48.465Z,3.83
2018-10-02T15:15:16.550Z,3.70
2018-10-02T15:17:44.727Z,3.73
2018-10-02T15:20:12.773Z,3.40
2018-10-02T15:22:40.928Z,3.40
2018-10-02T15:25:09.013Z,3.70
2018-10-02T15:27:37.058Z,3.60
2018-10-02T15:30:05.379Z,3.20
2018-10-02T15:32:33.645Z,3.43
2018-10-02T15:35:01.753Z,3.90
2018-10-02T15:37:29.987Z,3.97
2018-10-02T15:39:58.038Z,3.57
2018-10-02T15:42:26.211Z,3.93
2018-10-02T15:44:54.277Z,4.47
2018-10-02T15:47:22.335Z,3.33
2018-10-02T15:49:50.417Z,3.33
2018-10-02T15:52:18.460Z,3.70
2018-10-02T15:54:46.533Z,3.60
2018-10-02T15:57:14.580Z,3.30
2018-10-02T15:59:42.663Z,3.50
2018-10-02T16:02:10.809Z,3.60
2018-10-02T16:04:38.866Z,2.83
2018-10-02T16:07:06.976Z,3.10
2018-10-02T16:09:35.085Z,3.33
2018-10-02T16:12:03.176Z,3.60
2018-10-02T16:14:31.591Z,3.70
2018-10-02T16:16:59.784Z,4.00
2018-10-02T16:19:27.860Z,2.83
2018-10-02T16:21:55.931Z,3.47
2018-10-02T16:24:23.986Z,2.90
2018-10-02T16:26:52.084Z,3.07
2018-10-02T16:29:20.221Z,2.83
2018-10-02T16:31:48.355Z,3.00
2018-10-02T16:34:16.493Z,3.17
2018-10-02T16:36:44.638Z,3.30
2018-10-02T16:39:12.706Z,2.93
2018-10-02T16:41:40.760Z,3.73
2018-10-02T16:44:08.899Z,2.93
2018-10-02T16:46:36.986Z,2.63
2018-10-02T16:49:05.085Z,2.67
2018-10-02T16:51:33.193Z,2.97
2018-10-02T16:54:01.284Z,2.60
2018-10-02T16:56:29.373Z,2.90
2018-10-02T16:58:57.453Z,5.20
2018-10-02T17:01:25.695Z,3.50
2018-10-02T17:03:53.818Z,2.83
2018-10-02T17:06:21.884Z,2.73
2018-10-02T17:08:50.006Z,3.00
2018-10-02T17:11:18.061Z,2.77
2018-10-02T17:13:46.108Z,2.80
2018-10-02T17:16:14.196Z,2.80
2018-10-02T17:18:42.352Z,2.57
2018-10-02T17:21:10.430Z,2.90
2018-10-02T17:23:38.503Z,3.07
2018-10-02T17:26:06.793Z,2.80
2018-10-02T17:28:34.927Z,2.93
2018-10-02T17:31:03.002Z,3.00
2018-10-02T17:33:31.110Z,3.20
2018-10-02T17:35:59.218Z,3.07
2018-10-02T17:38:27.294Z,3.37
2018-10-02T17:40:55.569Z,3.20
2018-10-02T17:43:23.736Z,3.83
2018-10-02T17:45:51.921Z,3.63
2018-10-02T17:48:20.107Z,4.10
2018-10-02T17:50:48.352Z,4.27
2018-10-02T17:53:16.496Z,4.17
2018-10-02T17:55:44.654Z,3.83
2018-10-02T17:58:12.756Z,4.57
2018-10-02T18:00:40.884Z,4.23
2018-10-02T18:03:08.980Z,4.17
2018-10-02T18:05:37.450Z,3.87
2018-10-02T18:08:05.541Z,3.90
2018-10-02T18:10:33.651Z,4.03
2018-10-02T18:13:01.964Z,4.17
2018-10-02T18:15:30.174Z,3.70
2018-10-02T18:17:58.287Z,4.00
2018-10-02T18:20:26.384Z,4.03
2018-10-02T18:22:54.471Z,3.93
2018-10-02T18:25:22.580Z,4.40
2018-10-02T18:27:50.761Z,3.97
2018-10-02T18:30:19.059Z,3.80
2018-10-02T18:32:47.338Z,4.90
2018-10-02T18:35:15.487Z,5.33
2018-10-02T18:37:43.550Z,4.77
2018-10-02T18:40:12.522Z,5.47
2018-10-02T18:42:40.600Z,7.57
2018-10-02T18:45:08.765Z,8.43
2018-10-02T18:47:36.826Z,9.87
2018-10-02T18:50:04.955Z,9.13
2018-10-02T18:52:33.070Z,10.00
2018-10-02T18:55:01.208Z,11.40
2018-10-02T18:57:29.359Z,10.83
2018-10-02T18:59:57.459Z,10.63
2018-10-02T19:02:25.725Z,11.47
2018-10-02T19:04:54.047Z,11.50
2018-10-02T19:07:22.224Z,13.97
2018-10-02T19:09:50.330Z,12.90
2018-10-02T19:12:19.804Z,13.77
2018-10-02T19:14:47.987Z,14.03
2018-10-02T19:17:16.267Z,14.43
2018-10-02T19:19:49.601Z,14.00
2018-10-02T19:22:17.820Z,14.93
2018-10-02T19:24:45.960Z,14.60
2018-10-02T19:27:14.080Z,14.77
2018-10-02T19:29:42.200Z,16.30
2018-10-02T19:32:13.197Z,15.30
2018-10-02T19:34:41.268Z,15.53
2018-10-02T19:37:14.681Z,14.23
2018-10-02T19:39:42.954Z,12.90
2018-10-02T19:42:11.230Z,12.80
2018-10-02T19:44:39.864Z,14.00
2018-10-02T19:47:07.929Z,11.07
2018-10-02T19:49:36.559Z,10.70
2018-10-02T19:52:11.428Z,11.47
2018-10-02T19:54:39.496Z,11.30
2018-10-02T19:57:08.827Z,11.00
2018-10-02T19:59:36.922Z,10.23
2018-10-02T20:02:05.029Z,10.33
2018-10-02T20:04:33.119Z,9.47
2018-10-02T20:07:01.248Z,9.30
2018-10-02T20:09:29.326Z,8.83
2018-10-02T20:11:57.426Z,9.03
2018-10-02T20:14:25.533Z,8.53
2018-10-02T20:16:53.669Z,8.40
2018-10-02T20:19:21.850Z,8.13
2018-10-02T20:21:49.984Z,8.90
2018-10-02T20:24:24.667Z,9.93
2018-10-02T20:26:52.817Z,9.80
2018-10-02T20:29:20.946Z,10.40
2018-10-02T20:31:50.502Z,9.67
2018-10-02T20:34:18.623Z,10.37
2018-10-02T20:36:46.949Z,10.13
2018-10-02T20:39:14.995Z,11.43
2018-10-02T20:41:43.117Z,10.30
2018-10-02T20:44:11.220Z,10.93
2018-10-02T20:46:39.298Z,8.90
2018-10-02T20:49:07.418Z,8.60
2018-10-02T20:51:35.516Z,7.77
2018-10-02T20:54:03.597Z,7.00
2018-10-02T20:56:31.723Z,6.47
2018-10-02T20:58:59.941Z,6.70
2018-10-02T21:01:28.325Z,6.67
2018-10-02T21:03:56.507Z,6.07
2018-10-02T21:06:24.767Z,6.87
2018-10-02T21:08:52.819Z,5.80
2018-10-02T21:11:20.939Z,6.37
2018-10-02T21:13:49.005Z,5.00
2018-10-02T21:16:17.092Z,5.83
2018-10-02T21:18:45.154Z,5.90
2018-10-02T21:21:13.296Z,6.00
2018-10-02T21:23:41.416Z,6.40
2018-10-02T21:26:09.510Z,5.80
2018-10-02T21:28:37.728Z,5.67
2018-10-02T21:31:06.053Z,5.90
2018-10-02T21:33:34.139Z,6.00
2018-10-02T21:36:02.198Z,5.87
2018-10-02T21:38:30.282Z,4.87
2018-10-02T21:40:58.405Z,5.00
2018-10-02T21:43:26.506Z,4.07
2018-10-02T21:45:54.581Z,5.10
2018-10-02T21:48:22.722Z,4.40
2018-10-02T21:50:50.820Z,3.80
2018-10-02T21:53:18.991Z,3.73
2018-10-02T21:55:47.055Z,4.13
2018-10-02T21:58:15.237Z,4.00
2018-10-02T22:00:43.297Z,3.90
2018-10-02T22:03:11.379Z,3.43
2018-10-02T22:05:39.443Z,4.17
2018-10-02T22:08:07.644Z,4.63
2018-10-02T22:10:35.743Z,4.40
2018-10-02T22:13:03.875Z,4.47
2018-10-02T22:15:32.051Z,3.87
2018-10-02T22:18:00.184Z,4.70
2018-10-02T22:20:28.290Z,4.80
2018-10-02T22:22:56.457Z,5.03
2018-10-02T22:25:24.537Z,4.63
2018-10-02T22:27:52.824Z,5.07
2018-10-02T22:30:20.897Z,4.47
2018-10-02T22:32:49.016Z,4.10
2018-10-02T22:35:17.129Z,4.03
2018-10-02T22:37:45.237Z,4.70
2018-10-02T22:40:13.453Z,4.37
2018-10-02T22:42:41.484Z,4.00
2018-10-02T22:45:09.583Z,3.73
2018-10-02T22:47:37.663Z,3.30
2018-10-02T22:50:05.774Z,3.83
2018-10-02T22:52:33.850Z,4.20
2018-10-02T22:55:01.900Z,3.67
2018-10-02T22:57:29.991Z,3.63
2018-10-02T22:59:58.115Z,3.77
2018-10-02T23:02:26.201Z,3.27
2018-10-02T23:04:54.276Z,3.87
2018-10-02T23:07:22.403Z,3.33
2018-10-02T23:09:50.500Z,3.43
2018-10-02T23:12:18.627Z,3.30
2018-10-02T23:14:46.761Z,3.30
2018-10-02T23:17:14.876Z,3.57
2018-10-02T23:19:43.001Z,3.40
2018-10-02T23:22:11.111Z,3.20
2018-10-02T23:24:39.229Z,3.53
2018-10-02T23:27:07.287Z,3.83
2018-10-02T23:29:35.386Z,3.60
2018-10-02T23:32:03.456Z,3.40
2018-10-02T23:34:31.565Z,3.07
2018-10-02T23:36:59.747Z,4.40
2018-10-02T23:39:27.981Z,3.93
2018-10-02T23:41:56.094Z,3.80
2018-10-02T23:44:24.189Z,3.47
2018-10-02T23:46:52.273Z,3.80
2018-10-02T23:49:20.384Z,3.40
2018-10-02T23:51:48.496Z,3.73
2018-10-02T23:54:16.786Z,3.40
2018-10-02T23:56:44.876Z,3.43
2018-10-02T23:59:13.002Z,3.73
